Time;durP1;ratioP1;P1;durP2;ratioP2;P2;SDS_P1;SDS_P2;PMS_P1;PMS_P2;Temp;Humidity;BMP_temperature;BMP_pressure;BME280_temperature;BME280_humidity;BME280_pressure;Samples;Min_cycle;Max_cycle;Signal;HPM_P1;HPM_P2
2023/01/23 00:01:38;;;;;;;0.10;0.10;;;1.70;99.90;12.80;163505.00;;;;4978096;28;20585;-77
2023/01/23 00:04:12;;;;;;;0.10;0.10;;;1.60;99.90;12.80;163505.00;;;;4982703;28;20272;-78
2023/01/23 00:06:40;;;;;;;0.10;0.10;;;1.70;99.90;12.80;163505.00;;;;4967664;28;20674;-77
2023/01/23 00:09:10;;;;;;;0.10;0.10;;;1.70;99.90;12.80;163505.00;;;;4978727;28;20272;-75
2023/01/23 00:11:38;;;;;;;0.10;0.10;;;1.70;99.90;12.80;163505.00;;;;4980077;28;20268;-75
2023/01/23 00:14:06;;;;;;;0.10;0.10;;;1.70;99.90;12.80;163505.00;;;;4977751;28;20253;-75
2023/01/23 00:16:34;;;;;;;0.10;0.10;;;1.70;99.90;12.80;163505.00;;;;4982519;28;20221;-75
2023/01/23 00:19:02;;;;;;;0.10;0.10;;;1.70;99.90;12.80;163505.00;;;;4983643;28;20253;-75
2023/01/23 00:21:31;;;;;;;0.10;0.10;;;1.70;99.90;12.80;163505.00;;;;4986945;28;20262;-75
2023/01/23 00:24:01;;;;;;;0.17;0.17;;;1.60;99.90;12.80;163505.00;;;;4982788;28;20217;-77
2023/01/23 00:26:32;;;;;;;0.10;0.10;;;1.60;99.90;12.80;163505.00;;;;4984966;28;20198;-78
2023/01/23 00:29:01;;;;;;;0.10;0.10;;;1.60;99.90;12.80;163505.00;;;;4983624;28;20241;-77
2023/01/23 00:31:32;;;;;;;0.10;0.10;;;1.60;99.90;12.80;163505.00;;;;4980071;28;20244;-77
2023/01/23 00:34:04;;;;;;;0.10;0.10;;;1.60;99.90;12.80;163505.00;;;;4959085;28;20232;-77
2023/01/23 00:36:37;;;;;;;0.10;0.10;;;1.60;99.90;12.80;163505.00;;;;4976429;28;20678;-77
2023/01/23 00:39:08;;;;;;;0.10;0.10;;;1.60;99.90;12.80;163505.00;;;;4948676;29;20230;-77
2023/01/23 00:41:36;;;;;;;0.10;0.10;;;1.60;99.90;12.80;163505.00;;;;4952940;28;20217;-76
2023/01/23 00:44:04;;;;;;;0.20;0.20;;;1.60;99.90;12.80;163505.00;;;;4956868;28;20193;-75
2023/01/23 00:46:33;;;;;;;0.10;0.10;;;1.70;99.90;12.80;163505.00;;;;4969727;28;20193;-75
2023/01/23 00:49:01;;;;;;;0.20;0.20;;;1.60;99.90;12.80;163505.00;;;;4967050;28;20610;-77
2023/01/23 00:51:29;;;;;;;0.10;0.10;;;1.70;99.90;12.80;163505.00;;;;4965608;28;20226;-77
2023/01/23 00:53:59;;;;;;;0.15;0.15;;;1.60;99.90;12.80;163505.00;;;;4988497;28;20200;-77
2023/01/23 00:56:27;;;;;;;0.10;0.10;;;1.70;99.90;12.80;163505.00;;;;4968564;28;20216;-77
2023/01/23 00:58:55;;;;;;;0.10;0.10;;;1.70;99.90;12.80;163505.00;;;;4977879;28;20229;-76
2023/01/23 01:01:24;;;;;;;0.10;0.10;;;1.70;99.90;12.80;163505.00;;;;4979556;28;20224;-75
2023/01/23 01:03:53;;;;;;;0.10;0.10;;;1.60;99.90;12.80;163505.00;;;;4954708;28;20610;-75
2023/01/23 01:06:21;;;;;;;0.10;0.10;;;1.60;99.90;12.80;163505.00;;;;4976261;28;20225;-76
2023/01/23 01:08:49;;;;;;;0.20;0.20;;;1.70;99.90;12.80;163505.00;;;;4954167;28;20256;-76
2023/01/23 01:11:19;;;;;;;0.10;0.10;;;1.70;99.90;12.80;163505.00;;;;4955989;28;20207;-75
2023/01/23 01:13:47;;;;;;;0.10;0.10;;;1.70;99.90;12.80;163505.00;;;;4972088;28;20213;-75
2023/01/23 01:16:15;;;;;;;0.10;0.10;;;1.70;99.90;12.80;163505.00;;;;4974425;28;20197;-75
2023/01/23 01:18:43;;;;;;;0.10;0.10;;;1.70;99.90;12.80;163505.00;;;;4956390;28;20221;-75
2023/01/23 01:21:14;;;;;;;0.10;0.10;;;1.70;99.90;12.80;163505.00;;;;4978007;28;20196;-75
2023/01/23 01:23:43;;;;;;;0.17;0.17;;;1.60;99.90;12.80;163505.00;;;;4968963;28;20268;-75
2023/01/23 01:26:11;;;;;;;0.10;0.10;;;1.60;99.90;12.80;163505.00;;;;4973700;28;20224;-75
2023/01/23 01:28:41;;;;;;;0.10;0.10;;;1.70;99.90;12.80;163505.00;;;;4962059;28;20232;-75
2023/01/23 01:31:13;;;;;;;0.03;0.03;;;1.60;99.90;12.80;163505.00;;;;4976727;28;20212;-75
2023/01/23 01:33:44;;;;;;;0.10;0.10;;;1.70;99.90;12.80;163505.00;;;;4972197;28;20284;-75
2023/01/23 01:36:15;;;;;;;0.10;0.10;;;1.70;99.90;12.80;163505.00;;;;4980043;28;20204;-76
2023/01/23 01:38:46;;;;;;;0.10;0.10;;;1.70;99.90;12.80;163505.00;;;;4968163;28;20213;-76
2023/01/23 01:41:16;;;;;;;0.20;0.20;;;1.60;99.90;12.80;163505.00;;;;4958087;28;20208;-76
2023/01/23 01:43:46;;;;;;;0.10;0.10;;;1.70;99.90;12.80;163505.00;;;;4965732;28;20306;-77
2023/01/23 01:46:21;;;;;;;0.10;0.10;;;1.70;99.90;12.80;163505.00;;;;4952767;28;20222;-76
2023/01/23 01:49:06;;;;;;;0.10;0.10;;;1.70;99.90;12.80;163505.00;;;;4962007;28;20220;-75
2023/01/23 01:51:40;;;;;;;0.10;0.10;;;1.60;99.90;12.80;163505.00;;;;4957050;28;20255;-77
2023/01/23 01:54:18;;;;;;;0.10;0.10;;;1.60;99.90;12.80;163505.00;;;;4960822;28;20243;-76
2023/01/23 01:56:52;;;;;;;0.10;0.10;;;1.60;99.90;12.80;163505.00;;;;4972572;28;20674;-76
2023/01/23 01:59:26;;;;;;;0.10;0.10;;;1.70;99.90;12.80;163505.00;;;;4986252;28;20270;-76
2023/01/23 02:02:03;;;;;;;0.10;0.10;;;1.70;99.90;12.80;163505.00;;;;4959508;28;20256;-77
2023/01/23 02:04:35;;;;;;;0.10;0.10;;;1.70;99.90;12.80;163505.00;;;;4973032;28;20448;-76
2023/01/23 02:07:10;;;;;;;0.10;0.10;;;1.70;99.90;12.80;163505.00;;;;4969414;28;20221;-76
2023/01/23 02:09:38;;;;;;;0.10;0.10;;;1.70;99.90;12.80;163505.00;;;;5003054;28;20224;-77
2023/01/23 02:12:08;;;;;;;0.10;0.10;;;1.70;99.90;12.80;163505.00;;;;4963026;28;20256;-77
2023/01/23 02:14:37;;;;;;;0.10;0.10;;;1.70;99.90;12.80;163505.00;;;;4955873;28;20193;-76
2023/01/23 02:17:05;;;;;;;0.10;0.10;;;1.70;99.90;12.80;163505.00;;;;4971706;28;20205;-76
2023/01/23 02:19:47;;;;;;;0.10;0.10;;;1.60;99.90;12.80;163505.00;;;;4977467;28;20217;-74
2023/01/23 02:22:33;;;;;;;0.20;0.20;;;1.60;99.90;12.80;163505.00;;;;4951900;28;20293;-76
2023/01/23 02:25:11;;;;;;;0.10;0.10;;;1.60;99.90;12.80;163505.00;;;;4974067;28;20209;-75
2023/01/23 02:27:41;;;;;;;0.10;0.10;;;1.70;99.90;12.80;163505.00;;;;4957839;28;20205;-75
2023/01/23 02:30:12;;;;;;;0.10;0.10;;;1.60;99.90;12.80;163505.00;;;;4956138;28;20208;-76
2023/01/23 02:32:42;;;;;;;0.10;0.10;;;1.60;99.90;12.80;163505.00;;;;4954569;28;20201;-75
2023/01/23 02:35:14;;;;;;;0.10;0.10;;;1.60;99.90;12.80;163505.00;;;;4957249;28;20208;-76
2023/01/23 02:37:46;;;;;;;0.10;0.10;;;1.60;99.90;12.80;163505.00;;;;4969069;28;20198;-76
2023/01/23 02:40:15;;;;;;;0.00;0.00;;;1.60;99.90;12.80;163505.00;;;;4957831;28;20194;-76
2023/01/23 02:42:47;;;;;;;0.10;0.10;;;1.60;99.90;12.80;163505.00;;;;4968103;28;20613;-77
2023/01/23 02:45:17;;;;;;;0.10;0.10;;;1.60;99.90;12.80;163505.00;;;;4952456;28;20296;-76
2023/01/23 02:47:46;;;;;;;0.10;0.10;;;1.60;99.90;12.80;163505.00;;;;4954667;28;20213;-76
2023/01/23 02:50:16;;;;;;;0.10;0.10;;;1.70;99.90;12.80;163505.00;;;;4946451;28;20201;-76
2023/01/23 02:52:46;;;;;;;0.10;0.10;;;1.60;99.90;12.80;163505.00;;;;4948909;29;20653;-77
2023/01/23 02:55:14;;;;;;;0.10;0.10;;;1.70;99.90;12.80;163505.00;;;;4952308;28;20260;-77
2023/01/23 02:57:45;;;;;;;0.10;0.10;;;1.70;99.90;12.80;163505.00;;;;4951618;28;20205;-76
2023/01/23 03:00:18;;;;;;;0.10;0.10;;;1.60;99.90;12.80;163505.00;;;;4977359;28;20277;-76
2023/01/23 03:02:49;;;;;;;0.10;0.10;;;1.60;99.90;12.80;163505.00;;;;4967645;28;20582;-76
2023/01/23 03:05:18;;;;;;;0.10;0.10;;;1.60;99.90;12.80;163505.00;;;;4952912;28;20296;-77
2023/01/23 03:07:46;;;;;;;0.10;0.10;;;1.50;99.90;12.80;163505.00;;;;4946596;29;20214;-76
2023/01/23 03:10:14;;;;;;;0.10;0.10;;;1.50;99.90;12.80;163505.00;;;;4969422;28;20204;-76
2023/01/23 03:12:46;;;;;;;0.10;0.10;;;1.50;99.90;12.80;163505.00;;;;4958460;28;20193;-76
2023/01/23 03:15:15;;;;;;;0.10;0.10;;;1.50;99.90;12.80;163505.00;;;;4958478;28;20700;-76
2023/01/23 03:17:43;;;;;;;0.10;0.10;;;1.50;99.90;12.80;163505.00;;;;4968508;28;20272;-77
2023/01/23 03:20:11;;;;;;;0.10;0.10;;;1.50;99.90;12.80;163505.00;;;;4956776;28;20267;-76
2023/01/23 03:22:41;;;;;;;0.10;0.10;;;1.60;99.90;12.80;163505.00;;;;4965309;28;20205;-77
2023/01/23 03:25:10;;;;;;;0.10;0.10;;;1.60;99.90;12.80;163505.00;;;;4950650;28;20201;-77
2023/01/23 03:27:38;;;;;;;0.10;0.10;;;1.60;99.90;12.80;163505.00;;;;4968984;28;20523;-76
2023/01/23 03:30:12;;;;;;;0.10;0.10;;;1.50;99.90;12.80;163505.00;;;;4968945;28;20200;-77
2023/01/23 03:32:41;;;;;;;0.10;0.10;;;1.50;99.90;12.80;163505.00;;;;4972869;28;20219;-76
2023/01/23 03:35:12;;;;;;;0.10;0.10;;;1.50;99.90;12.80;163505.00;;;;4977629;28;20286;-76
2023/01/23 03:37:41;;;;;;;0.10;0.10;;;1.60;99.90;12.80;163505.00;;;;4953019;28;20231;-77
2023/01/23 03:43:03;;;;;;;0.10;0.10;;;1.70;99.90;12.80;163505.00;;;;4943063;29;20606;-76
2023/01/23 03:45:34;;;;;;;0.10;0.10;;;1.60;99.90;12.80;163505.00;;;;4950271;28;20326;-76
2023/01/23 03:48:02;;;;;;;0.10;0.10;;;1.60;99.90;12.80;163505.00;;;;4955715;28;20662;-76
2023/01/23 03:50:31;;;;;;;0.10;0.10;;;1.50;99.90;12.80;163505.00;;;;4957100;28;20215;-75
2023/01/23 03:52:58;;;;;;;0.10;0.10;;;1.60;99.90;12.80;163505.00;;;;4972573;28;20197;-77
2023/01/23 03:55:27;;;;;;;0.10;0.10;;;1.50;99.90;12.80;163505.00;;;;4968617;28;20693;-78
2023/01/23 03:57:54;;;;;;;0.10;0.10;;;1.50;99.90;12.80;163505.00;;;;4957533;28;20616;-77
2023/01/23 04:00:30;;;;;;;0.10;0.10;;;1.60;99.90;12.80;163505.00;;;;4951601;28;20304;-76
2023/01/23 04:03:05;;;;;;;0.10;0.10;;;1.60;99.90;12.80;163505.00;;;;4961055;28;20201;-76
2023/01/23 04:05:34;;;;;;;0.10;0.10;;;1.60;99.90;12.80;163505.00;;;;4987072;28;20208;-76
2023/01/23 04:08:03;;;;;;;0.10;0.10;;;1.50;99.90;12.80;163505.00;;;;4948516;28;20284;-76
2023/01/23 04:10:31;;;;;;;0.10;0.10;;;1.50;99.90;12.80;163505.00;;;;4957654;28;20260;-76
2023/01/23 04:13:04;;;;;;;0.10;0.10;;;1.60;99.90;12.80;163505.00;;;;4957705;28;20301;-75
2023/01/23 04:15:33;;;;;;;0.10;0.10;;;1.50;99.90;12.80;163505.00;;;;4949936;28;20284;-76
2023/01/23 04:18:05;;;;;;;0.10;0.10;;;1.50;99.90;12.80;163505.00;;;;4952948;28;20652;-76
2023/01/23 04:20:34;;;;;;;0.20;0.20;;;1.50;99.90;12.80;163505.00;;;;4954598;28;20209;-76
2023/01/23 04:23:02;;;;;;;0.10;0.10;;;1.50;99.90;12.80;163505.00;;;;4954507;28;20197;-76
2023/01/23 04:25:30;;;;;;;0.10;0.10;;;1.50;99.90;12.80;163505.00;;;;4957480;28;20201;-76
2023/01/23 04:27:58;;;;;;;0.10;0.10;;;1.60;99.90;12.80;163505.00;;;;4948979;28;20224;-77
2023/01/23 04:30:27;;;;;;;0.10;0.10;;;1.60;99.90;12.80;163505.00;;;;4953751;28;20201;-76
2023/01/23 04:32:59;;;;;;;0.10;0.10;;;1.60;99.90;12.80;163505.00;;;;4954518;28;20633;-77
2023/01/23 04:35:30;;;;;;;0.10;0.10;;;1.70;99.90;12.80;163505.00;;;;4947627;28;20635;-76
2023/01/23 04:37:58;;;;;;;0.10;0.10;;;1.60;99.90;12.80;163505.00;;;;4953287;28;20235;-76
2023/01/23 04:40:28;;;;;;;0.10;0.10;;;1.70;99.90;12.80;163505.00;;;;4949594;28;20197;-76
2023/01/23 04:42:59;;;;;;;0.10;0.10;;;1.60;99.90;12.80;163505.00;;;;4952171;28;20208;-76
2023/01/23 04:45:43;;;;;;;0.10;0.10;;;1.60;99.90;12.80;163505.00;;;;4943199;28;20233;-75
2023/01/23 04:48:26;;;;;;;0.10;0.10;;;1.60;99.90;12.80;163505.00;;;;4978939;28;20240;-76
2023/01/23 04:50:56;;;;;;;0.10;0.10;;;1.60;99.90;12.80;163505.00;;;;4960166;28;20201;-76
2023/01/23 04:53:24;;;;;;;0.10;0.10;;;1.60;99.90;12.80;163505.00;;;;4948512;28;20206;-76
2023/01/23 04:55:59;;;;;;;0.10;0.10;;;1.60;99.90;12.80;163505.00;;;;4965073;28;20194;-76
2023/01/23 04:58:27;;;;;;;0.20;0.20;;;1.70;99.90;12.80;163505.00;;;;4951127;28;20722;-77
2023/01/23 05:01:03;;;;;;;0.10;0.10;;;1.60;99.90;12.80;163505.00;;;;4950285;28;20637;-76
2023/01/23 05:03:33;;;;;;;0.10;0.10;;;1.60;99.90;12.80;163505.00;;;;4951849;28;20193;-74
2023/01/23 05:06:03;;;;;;;0.10;0.10;;;1.60;99.90;12.80;163505.00;;;;4965833;28;20202;-75
2023/01/23 05:08:31;;;;;;;0.10;0.10;;;1.60;99.90;12.80;163505.00;;;;4951422;28;20248;-77
2023/01/23 05:11:13;;;;;;;0.10;0.10;;;1.60;99.90;12.80;163505.00;;;;4955124;28;20256;-76
2023/01/23 05:13:42;;;;;;;0.10;0.10;;;1.70;99.90;12.80;163505.00;;;;4973486;28;20674;-77
2023/01/23 05:16:11;;;;;;;0.10;0.10;;;1.70;99.90;12.80;163505.00;;;;4953329;28;20530;-76
2023/01/23 05:18:59;;;;;;;0.10;0.10;;;1.70;99.90;12.80;163505.00;;;;4972132;28;20252;-76
2023/01/23 05:21:30;;;;;;;0.10;0.10;;;1.70;99.90;12.80;163505.00;;;;4949813;28;20202;-75
2023/01/23 05:23:58;;;;;;;0.10;0.10;;;1.60;99.90;12.80;163505.00;;;;4956456;28;20197;-76
2023/01/23 05:26:26;;;;;;;0.10;0.10;;;1.70;99.90;12.80;163505.00;;;;4960298;28;20216;-76
2023/01/23 05:28:56;;;;;;;0.10;0.10;;;1.60;99.90;12.80;163505.00;;;;4965788;28;20300;-76
2023/01/23 05:31:26;;;;;;;0.10;0.10;;;1.60;99.90;12.80;163505.00;;;;4953968;28;20622;-76
2023/01/23 05:34:14;;;;;;;0.10;0.10;;;1.70;99.90;12.80;163505.00;;;;4969699;28;20205;-77
2023/01/23 05:36:44;;;;;;;0.10;0.10;;;1.70;99.90;12.80;163505.00;;;;4961236;28;20224;-76
2023/01/23 05:39:12;;;;;;;0.10;0.10;;;1.80;99.90;12.80;163505.00;;;;4956639;28;20244;-75
2023/01/23 05:41:41;;;;;;;0.10;0.10;;;1.70;99.90;12.80;163505.00;;;;4970456;28;20240;-76
2023/01/23 05:44:29;;;;;;;0.10;0.10;;;1.70;99.90;12.80;163505.00;;;;4975278;28;20345;-75
2023/01/23 05:47:05;;;;;;;0.10;0.10;;;1.70;99.90;12.80;163505.00;;;;4964960;28;20221;-76
2023/01/23 05:49:33;;;;;;;0.10;0.10;;;1.70;99.90;12.80;163505.00;;;;4955450;28;20602;-75
2023/01/23 05:52:03;;;;;;;0.17;0.17;;;1.70;99.90;12.80;163505.00;;;;4956761;28;20202;-76
2023/01/23 05:54:33;;;;;;;0.10;0.10;;;1.70;99.90;12.80;163505.00;;;;4957415;28;20621;-75
2023/01/23 05:57:02;;;;;;;0.10;0.10;;;1.70;99.90;12.80;163505.00;;;;4979704;28;20217;-74
2023/01/23 05:59:56;;;;;;;0.10;0.10;;;1.70;99.90;12.80;163505.00;;;;4982204;28;20239;-77
2023/01/23 06:02:41;;;;;;;0.10;0.10;;;1.70;99.90;12.80;163505.00;;;;4968582;28;20204;-77
2023/01/23 06:05:24;;;;;;;0.10;0.10;;;1.70;99.90;12.80;163505.00;;;;4977843;28;20223;-77
2023/01/23 06:08:07;;;;;;;0.10;0.10;;;1.70;99.90;12.80;163505.00;;;;4943390;28;20605;-77
2023/01/23 06:10:37;;;;;;;0.10;0.10;;;1.70;99.90;12.80;163505.00;;;;4958614;28;20224;-77
2023/01/23 06:13:06;;;;;;;0.10;0.10;;;1.70;99.90;12.80;163505.00;;;;4957446;28;20197;-79
2023/01/23 06:15:36;;;;;;;0.10;0.10;;;1.80;99.90;12.80;163505.00;;;;4965090;28;20193;-80
2023/01/23 06:18:10;;;;;;;0.10;0.10;;;1.80;99.90;12.80;163505.00;;;;4949363;29;20657;-78
2023/01/23 06:20:39;;;;;;;0.10;0.10;;;1.70;99.90;12.80;163505.00;;;;4968859;28;20212;-76
2023/01/23 06:23:09;;;;;;;0.10;0.10;;;1.80;99.90;12.80;163505.00;;;;4955765;28;20197;-77
2023/01/23 06:25:38;;;;;;;0.10;0.10;;;1.80;99.90;12.80;163505.00;;;;4955850;28;20204;-77
2023/01/23 06:28:08;;;;;;;0.10;0.10;;;1.70;99.90;12.80;163505.00;;;;4953533;28;21283;-79
2023/01/23 06:30:37;;;;;;;0.10;0.10;;;1.70;99.90;12.80;163505.00;;;;4962770;28;20200;-76
2023/01/23 06:33:13;;;;;;;0.10;0.10;;;1.60;99.90;12.80;163505.00;;;;4957828;28;20209;-78
2023/01/23 06:35:42;;;;;;;0.10;0.10;;;1.70;99.90;12.80;163505.00;;;;4956492;28;20467;-78
2023/01/23 06:38:11;;;;;;;0.15;0.15;;;1.60;99.90;12.80;163505.00;;;;4956285;28;20221;-79
2023/01/23 06:40:40;;;;;;;0.10;0.10;;;1.70;99.90;12.80;163505.00;;;;4965419;28;20216;-77
2023/01/23 06:43:25;;;;;;;0.10;0.10;;;1.70;99.90;12.80;163505.00;;;;4955589;28;20204;-78
2023/01/23 06:45:55;;;;;;;0.10;0.10;;;1.80;99.90;12.80;163505.00;;;;4956244;28;20201;-78
2023/01/23 06:48:24;;;;;;;0.10;0.10;;;1.80;99.90;12.80;163505.00;;;;4954946;28;20237;-78
2023/01/23 06:50:52;;;;;;;0.10;0.10;;;1.70;99.90;12.80;163505.00;;;;4963971;28;20248;-78
2023/01/23 06:53:21;;;;;;;0.10;0.10;;;1.70;99.90;12.80;163505.00;;;;4951843;28;20288;-78
2023/01/23 06:55:52;;;;;;;0.10;0.10;;;1.70;99.90;12.80;163505.00;;;;4957800;28;20633;-78
2023/01/23 06:58:20;;;;;;;0.10;0.10;;;1.70;99.90;12.80;163505.00;;;;4974379;28;20284;-78
2023/01/23 07:00:49;;;;;;;0.10;0.10;;;1.70;99.90;12.80;163505.00;;;;4962421;28;20513;-78
2023/01/23 07:03:37;;;;;;;0.10;0.10;;;1.80;99.90;12.80;163505.00;;;;4973930;28;20288;-78
2023/01/23 07:06:06;;;;;;;0.10;0.10;;;1.70;99.90;12.80;163505.00;;;;4956669;28;20615;-78
2023/01/23 07:08:36;;;;;;;0.10;0.10;;;1.70;99.90;12.80;163505.00;;;;4972931;28;20901;-78
2023/01/23 07:11:05;;;;;;;0.10;0.10;;;1.70;99.90;12.80;163505.00;;;;4959694;28;20207;-79
2023/01/23 07:13:33;;;;;;;0.10;0.10;;;1.70;99.90;12.80;163505.00;;;;4954719;28;20734;-78
2023/01/23 07:16:02;;;;;;;0.10;0.10;;;1.80;99.90;12.80;163505.00;;;;4951284;28;20277;-78
2023/01/23 07:18:31;;;;;;;0.10;0.10;;;1.80;99.90;12.80;163505.00;;;;4948786;28;20228;-80
2023/01/23 07:21:04;;;;;;;0.10;0.10;;;1.80;99.90;12.80;163505.00;;;;4974225;28;20248;-80
2023/01/23 07:23:32;;;;;;;0.10;0.10;;;1.80;99.90;12.80;163505.00;;;;4974432;28;20233;-80
2023/01/23 07:26:06;;;;;;;0.10;0.10;;;1.80;99.90;12.80;163505.00;;;;4973409;28;20205;-79
2023/01/23 07:28:34;;;;;;;0.10;0.10;;;1.80;99.90;12.80;163505.00;;;;4972870;28;20228;-81
2023/01/23 07:31:02;;;;;;;0.10;0.10;;;1.80;99.90;12.80;163505.00;;;;4973009;28;20573;-78
2023/01/23 07:33:30;;;;;;;0.10;0.10;;;1.80;99.90;12.80;163505.00;;;;4969458;28;20201;-80
2023/01/23 07:35:58;;;;;;;0.10;0.10;;;1.80;99.90;12.80;163505.00;;;;4968144;28;20686;-78
2023/01/23 07:38:26;;;;;;;0.10;0.10;;;1.80;99.90;12.80;163505.00;;;;4973356;28;20232;-78
2023/01/23 07:40:58;;;;;;;0.10;0.10;;;1.90;99.90;12.80;163505.00;;;;4973518;28;20252;-78
2023/01/23 07:43:28;;;;;;;0.10;0.10;;;1.90;99.90;12.80;163505.00;;;;4974844;28;20610;-80
2023/01/23 07:45:59;;;;;;;0.10;0.10;;;1.80;99.90;12.80;163505.00;;;;4974418;28;20201;-78
2023/01/23 07:48:28;;;;;;;0.10;0.10;;;1.80;99.90;12.80;163505.00;;;;4972535;28;20232;-78
2023/01/23 07:50:56;;;;;;;0.10;0.10;;;1.80;99.90;12.80;163505.00;;;;4973764;28;20217;-78
2023/01/23 07:53:24;;;;;;;0.10;0.10;;;1.90;99.90;12.80;163505.00;;;;4974339;28;20591;-77
2023/01/23 07:55:52;;;;;;;0.10;0.10;;;1.90;99.90;12.80;163505.00;;;;4982712;28;20201;-78
2023/01/23 07:58:20;;;;;;;0.10;0.10;;;1.90;99.90;12.80;163505.00;;;;4947466;28;20237;-79
2023/01/23 08:00:49;;;;;;;0.10;0.10;;;1.90;99.90;12.80;163505.00;;;;4970749;28;20208;-79
2023/01/23 08:03:19;;;;;;;0.10;0.10;;;1.90;99.90;12.80;163505.00;;;;4968921;28;20251;-80
2023/01/23 08:05:49;;;;;;;0.10;0.10;;;2.00;99.90;12.80;163505.00;;;;4978285;28;20200;-79
2023/01/23 08:08:17;;;;;;;0.10;0.10;;;2.00;99.90;12.80;163505.00;;;;4971283;28;20225;-79
2023/01/23 08:10:45;;;;;;;0.10;0.10;;;2.00;99.90;12.80;163505.00;;;;4974578;28;20236;-79
2023/01/23 08:13:13;;;;;;;0.10;0.10;;;2.00;99.90;12.80;163505.00;;;;4975567;28;20208;-78
2023/01/23 08:15:41;;;;;;;0.10;0.10;;;2.10;99.90;12.80;163505.00;;;;4966372;28;20689;-78
2023/01/23 08:18:10;;;;;;;0.10;0.10;;;2.00;99.90;12.80;163505.00;;;;4974747;28;20716;-76
2023/01/23 08:20:38;;;;;;;0.10;0.10;;;2.10;99.90;12.80;163505.00;;;;4977638;28;20292;-77
2023/01/23 08:23:06;;;;;;;0.10;0.10;;;2.10;99.90;12.80;163505.00;;;;4984005;28;20685;-76
2023/01/23 08:25:34;;;;;;;0.10;0.10;;;2.00;99.90;12.80;163505.00;;;;4983885;28;20634;-77
2023/01/23 08:28:02;;;;;;;0.10;0.10;;;2.00;99.90;12.80;163505.00;;;;4995217;28;20216;-77
2023/01/23 08:30:30;;;;;;;0.10;0.10;;;2.00;99.90;12.80;163505.00;;;;4981992;28;20232;-76
2023/01/23 08:32:59;;;;;;;0.10;0.10;;;2.00;99.90;12.80;163505.00;;;;4963377;28;20615;-76
2023/01/23 08:35:28;;;;;;;0.10;0.10;;;2.00;99.90;12.80;163505.00;;;;4978876;28;20197;-77
2023/01/23 08:37:56;;;;;;;0.10;0.10;;;2.00;99.90;12.80;163505.00;;;;4978478;28;20248;-76
2023/01/23 08:40:24;;;;;;;0.10;0.10;;;2.00;99.90;12.80;163505.00;;;;4971032;28;20212;-77
2023/01/23 08:42:52;;;;;;;0.10;0.10;;;2.00;99.90;12.80;163505.00;;;;4972268;28;20208;-78
2023/01/23 08:45:20;;;;;;;0.10;0.10;;;2.00;99.90;12.80;163505.00;;;;4972424;28;20288;-77
2023/01/23 08:47:48;;;;;;;0.10;0.10;;;2.00;99.90;12.80;163505.00;;;;4975841;28;20684;-77
2023/01/23 08:50:17;;;;;;;0.10;0.10;;;2.00;99.90;12.80;163505.00;;;;4958763;28;20294;-76
2023/01/23 08:52:47;;;;;;;0.10;0.10;;;1.90;99.90;12.80;163505.00;;;;4977144;28;20252;-77
2023/01/23 08:55:15;;;;;;;0.10;0.10;;;2.00;99.90;12.80;163505.00;;;;4986365;28;20204;-77
2023/01/23 08:57:43;;;;;;;0.10;0.10;;;1.90;99.90;12.80;163505.00;;;;4976227;28;20201;-77
2023/01/23 09:00:13;;;;;;;0.10;0.10;;;1.90;99.90;12.80;163505.00;;;;4974370;28;20611;-76
2023/01/23 09:02:41;;;;;;;0.00;0.00;;;1.90;99.90;12.80;163505.00;;;;4968500;28;20225;-76
2023/01/23 09:05:09;;;;;;;0.10;0.10;;;2.00;99.90;12.80;163505.00;;;;4978483;28;20659;-77
2023/01/23 09:07:37;;;;;;;0.20;0.20;;;2.00;99.90;12.80;163505.00;;;;4975416;28;20201;-76
2023/01/23 09:10:09;;;;;;;0.10;0.10;;;2.00;99.90;12.80;163505.00;;;;4979097;28;20216;-77
2023/01/23 09:12:37;;;;;;;0.10;0.10;;;2.00;99.90;12.80;163505.00;;;;4975452;28;20211;-76
2023/01/23 09:15:07;;;;;;;0.10;0.10;;;2.10;99.90;12.80;163505.00;;;;4975564;28;20197;-77
2023/01/23 09:17:35;;;;;;;0.10;0.10;;;2.10;99.90;12.80;163505.00;;;;4958759;28;20256;-76
2023/01/23 09:20:05;;;;;;;0.10;0.10;;;2.10;99.90;12.80;163505.00;;;;4970500;28;20198;-77
2023/01/23 09:22:33;;;;;;;0.10;0.10;;;2.10;99.90;12.80;163505.00;;;;4975289;28;20256;-77
2023/01/23 09:25:01;;;;;;;0.10;0.10;;;2.10;99.90;12.80;163505.00;;;;4974875;28;20212;-78
2023/01/23 09:27:31;;;;;;;0.10;0.10;;;2.20;99.90;12.80;163505.00;;;;4975233;28;20197;-77
2023/01/23 09:29:59;;;;;;;0.10;0.10;;;2.20;99.90;12.80;163505.00;;;;4975207;28;20283;-76
2023/01/23 09:32:27;;;;;;;0.10;0.10;;;2.20;99.90;12.80;163505.00;;;;4978821;28;20264;-76
2023/01/23 09:34:54;;;;;;;0.10;0.10;;;2.20;99.90;12.80;163505.00;;;;4975746;28;20201;-76
2023/01/23 09:37:22;;;;;;;0.10;0.10;;;2.20;99.90;12.80;163505.00;;;;4976075;28;20670;-76
2023/01/23 09:39:50;;;;;;;0.10;0.10;;;2.20;99.90;12.80;163505.00;;;;4970165;28;20221;-76
2023/01/23 09:42:26;;;;;;;0.10;0.10;;;2.30;99.90;12.80;163505.00;;;;4980041;28;20201;-77
2023/01/23 09:45:02;;;;;;;0.10;0.10;;;2.30;99.90;12.80;163505.00;;;;4967529;28;20200;-76
2023/01/23 09:47:38;;;;;;;0.10;0.10;;;2.20;99.90;12.80;163505.00;;;;4987500;28;20200;-76
2023/01/23 09:50:16;;;;;;;0.10;0.10;;;2.20;99.90;12.80;163505.00;;;;4970996;28;20268;-79
2023/01/23 09:52:53;;;;;;;0.15;0.15;;;2.20;99.90;12.80;163505.00;;;;4969613;28;20205;-77
2023/01/23 09:55:33;;;;;;;0.10;0.10;;;2.30;99.90;12.80;163505.00;;;;4976918;28;20650;-77
2023/01/23 09:58:04;;;;;;;0.10;0.10;;;2.30;99.90;12.80;163505.00;;;;4976354;28;20276;-76
2023/01/23 10:00:35;;;;;;;0.10;0.10;;;2.20;99.90;12.80;163505.00;;;;4975764;28;20204;-78
2023/01/23 10:03:12;;;;;;;0.10;0.10;;;2.20;99.90;12.80;163505.00;;;;4976177;28;20252;-76
2023/01/23 10:05:56;;;;;;;0.10;0.10;;;2.20;99.90;12.80;163505.00;;;;4971697;28;20201;-76
2023/01/23 10:08:39;;;;;;;0.10;0.10;;;2.20;99.90;12.80;163505.00;;;;4972807;28;20710;-76
2023/01/23 10:11:17;;;;;;;0.10;0.10;;;2.20;99.90;12.80;163505.00;;;;4974807;28;20224;-77
2023/01/23 10:14:07;;;;;;;0.10;0.10;;;2.30;99.90;12.80;163505.00;;;;4973732;28;20205;-78
2023/01/23 10:17:02;;;;;;;0.10;0.10;;;2.30;99.90;12.80;163505.00;;;;4974365;28;20212;-76
2023/01/23 10:19:53;;;;;;;0.10;0.10;;;2.20;99.90;12.80;163505.00;;;;4973868;28;20287;-76
2023/01/23 10:22:41;;;;;;;0.10;0.10;;;2.30;99.90;12.80;163505.00;;;;4980882;28;20192;-77
2023/01/23 10:25:21;;;;;;;0.10;0.10;;;2.30;99.90;12.80;163505.00;;;;4978376;28;20208;-76
2023/01/23 10:27:52;;;;;;;0.10;0.10;;;2.30;99.90;12.80;163505.00;;;;4963892;28;20571;-78
2023/01/23 10:30:29;;;;;;;0.10;0.10;;;2.40;99.90;12.80;163505.00;;;;4975321;28;20249;-77
2023/01/23 10:33:02;;;;;;;0.10;0.10;;;2.40;99.90;12.80;163505.00;;;;4974026;28;20197;-76
2023/01/23 10:35:39;;;;;;;0.10;0.10;;;2.40;99.90;12.80;163505.00;;;;4973700;28;20567;-77
2023/01/23 10:38:25;;;;;;;0.10;0.10;;;2.30;99.90;12.80;163505.00;;;;4975662;28;20610;-78
2023/01/23 10:43:40;;;;;;;0.10;0.10;;;2.30;99.90;12.80;163505.00;;;;4973236;28;20223;-76
2023/01/23 10:46:14;;;;;;;0.10;0.10;;;2.20;99.90;12.80;163505.00;;;;4958093;28;20205;-77
2023/01/23 10:48:48;;;;;;;0.10;0.10;;;2.30;99.90;12.80;163505.00;;;;4967352;28;20252;-76
2023/01/23 10:51:33;;;;;;;0.10;0.10;;;2.30;99.90;12.80;163505.00;;;;4976833;28;20217;-78
2023/01/23 10:54:17;;;;;;;0.10;0.10;;;2.30;99.90;12.80;163505.00;;;;4970306;28;20201;-76
2023/01/23 10:57:01;;;;;;;0.10;0.10;;;2.40;99.90;12.80;163505.00;;;;4968351;28;20189;-76
2023/01/23 10:59:35;;;;;;;0.15;0.15;;;2.40;99.90;12.80;163505.00;;;;5011441;23;20260;-78
2023/01/23 11:02:20;;;;;;;0.10;0.10;;;2.40;99.90;12.80;163505.00;;;;4993786;28;20204;-78
2023/01/23 11:04:51;;;;;;;0.10;0.10;;;2.40;99.90;12.80;163505.00;;;;5003668;28;20211;-78
2023/01/23 11:07:22;;;;;;;0.10;0.10;;;2.30;99.90;12.80;163505.00;;;;4999277;28;20234;-79
2023/01/23 11:09:55;;;;;;;0.10;0.10;;;2.40;99.90;12.80;163505.00;;;;5001304;28;20216;-78
2023/01/23 11:12:33;;;;;;;0.10;0.10;;;2.40;99.90;12.80;163505.00;;;;4986168;28;20201;-77
2023/01/23 11:15:33;;;;;;;0.10;0.10;;;2.40;99.90;12.80;163505.00;;;;5001264;28;20218;-77
2023/01/23 11:18:01;;;;;;;0.10;0.10;;;2.40;99.90;12.80;163505.00;;;;4988300;28;20217;-78
2023/01/23 11:20:36;;;;;;;0.10;0.10;;;2.40;99.90;12.80;163505.00;;;;5001914;28;20208;-78